Time;durP1;ratioP1;P1;durP2;ratioP2;P2;SDS_P1;SDS_P2;PMS_P1;PMS_P2;Temp;Humidity;BMP_temperature;BMP_pressure;BME280_temperature;BME280_humidity;BME280_pressure;Samples;Min_cycle;Max_cycle;Signal;HPM_P1;HPM_P2
2021/08/26 00:06:21;;;;;;;9.65;7.47;;;;;;;;;;5021955;28;20649;-82
2021/08/26 00:08:50;;;;;;;8.90;6.85;;;;;;;;;;5007041;28;20182;-83
2021/08/26 00:11:20;;;;;;;10.07;7.45;;;;;;;;;;5024187;28;20174;-82
2021/08/26 00:13:46;;;;;;;8.00;7.20;;;;;;;;;;5016453;28;20181;-82
2021/08/26 00:16:13;;;;;;;10.57;7.55;;;;;;;;;;5015645;28;20191;-83
2021/08/26 00:18:40;;;;;;;11.35;8.10;;;;;;;;;;5024168;28;20257;-83
2021/08/26 00:21:06;;;;;;;9.35;7.35;;;;;;;;;;5005017;28;20229;-83
2021/08/26 00:23:32;;;;;;;8.63;7.75;;;;;;;;;;5025569;28;20182;-83
2021/08/26 00:25:58;;;;;;;11.95;7.47;;;;;;;;;;5023782;28;20218;-83
2021/08/26 00:28:24;;;;;;;11.05;7.95;;;;;;;;;;5019506;28;20202;-83
2021/08/26 00:30:50;;;;;;;7.87;6.30;;;;;;;;;;5020987;28;20203;-83
2021/08/26 00:33:17;;;;;;;7.40;6.65;;;;;;;;;;5019221;28;20433;-83
2021/08/26 00:35:43;;;;;;;10.30;7.90;;;;;;;;;;5024376;28;20174;-83
2021/08/26 00:38:09;;;;;;;11.10;7.50;;;;;;;;;;5035951;28;20178;-82
2021/08/26 00:40:35;;;;;;;9.48;7.72;;;;;;;;;;5038932;28;20261;-83
2021/08/26 00:43:01;;;;;;;12.23;8.80;;;;;;;;;;5044824;28;20308;-82
2021/08/26 00:45:28;;;;;;;8.38;7.30;;;;;;;;;;5043167;28;20206;-83
2021/08/26 00:47:55;;;;;;;11.55;7.57;;;;;;;;;;5043469;28;20170;-82
2021/08/26 00:50:23;;;;;;;9.60;8.55;;;;;;;;;;5054716;28;20169;-82
2021/08/26 00:52:49;;;;;;;9.57;6.50;;;;;;;;;;5056308;28;20208;-82
2021/08/26 00:55:15;;;;;;;8.38;7.35;;;;;;;;;;5050437;28;20193;-82
2021/08/26 00:57:41;;;;;;;8.13;7.32;;;;;;;;;;5043467;28;20220;-83
2021/08/26 01:00:11;;;;;;;10.02;7.15;;;;;;;;;;5059843;28;20262;-83
2021/08/26 01:02:56;;;;;;;12.35;6.25;;;;;;;;;;5050370;28;20536;-83
2021/08/26 01:05:35;;;;;;;11.35;7.63;;;;;;;;;;5077112;28;20231;-83
2021/08/26 01:08:03;;;;;;;12.18;6.93;;;;;;;;;;5049102;28;20178;-83
2021/08/26 01:10:29;;;;;;;11.23;7.10;;;;;;;;;;5047821;28;20221;-82
2021/08/26 01:12:57;;;;;;;11.90;8.73;;;;;;;;;;5047789;28;20215;-83
2021/08/26 01:15:26;;;;;;;7.47;6.70;;;;;;;;;;5042650;28;20221;-83
2021/08/26 01:17:52;;;;;;;9.27;7.97;;;;;;;;;;5062287;28;20180;-83
2021/08/26 01:20:18;;;;;;;9.05;7.57;;;;;;;;;;5049326;28;20229;-83
2021/08/26 01:22:44;;;;;;;9.13;7.05;;;;;;;;;;5047974;28;20187;-83
2021/08/26 01:25:12;;;;;;;8.80;6.93;;;;;;;;;;5046747;28;20205;-83
2021/08/26 01:27:44;;;;;;;9.05;7.32;;;;;;;;;;5045573;28;20734;-82
2021/08/26 01:30:13;;;;;;;7.93;6.32;;;;;;;;;;5043869;28;20182;-83
2021/08/26 01:32:40;;;;;;;8.75;6.75;;;;;;;;;;5056564;28;20188;-83
2021/08/26 01:35:06;;;;;;;10.15;7.05;;;;;;;;;;5048241;28;20272;-83
2021/08/26 01:37:32;;;;;;;9.10;7.10;;;;;;;;;;5042662;28;20189;-83
2021/08/26 01:39:58;;;;;;;10.45;6.43;;;;;;;;;;5046208;28;20197;-83
2021/08/26 01:42:25;;;;;;;9.13;6.28;;;;;;;;;;5057758;28;20183;-82
2021/08/26 01:44:54;;;;;;;8.00;7.20;;;;;;;;;;5046722;28;20202;-82
2021/08/26 01:47:21;;;;;;;6.22;5.25;;;;;;;;;;5049018;28;20182;-82
2021/08/26 01:49:48;;;;;;;6.60;6.00;;;;;;;;;;5047999;28;20260;-83
2021/08/26 01:52:15;;;;;;;8.60;6.13;;;;;;;;;;5047291;28;20753;-83
2021/08/26 01:54:42;;;;;;;6.40;5.60;;;;;;;;;;5047490;28;20189;-83
2021/08/26 01:57:08;;;;;;;7.65;5.82;;;;;;;;;;5044302;28;20201;-83
2021/08/26 01:59:34;;;;;;;5.83;4.43;;;;;;;;;;5060481;28;20173;-83
2021/08/26 02:02:00;;;;;;;6.63;5.85;;;;;;;;;;5048662;28;20441;-83
2021/08/26 02:04:26;;;;;;;7.28;5.70;;;;;;;;;;5046416;28;20265;-83
2021/08/26 02:06:52;;;;;;;7.50;6.40;;;;;;;;;;5045879;28;20557;-82
2021/08/26 02:09:18;;;;;;;6.10;5.57;;;;;;;;;;5041343;28;20505;-82
2021/08/26 02:11:44;;;;;;;6.23;5.00;;;;;;;;;;5048108;28;20416;-83
2021/08/26 02:14:10;;;;;;;5.83;5.23;;;;;;;;;;5046264;28;20420;-83
2021/08/26 02:16:36;;;;;;;5.87;4.50;;;;;;;;;;5045852;28;20433;-83
2021/08/26 02:19:02;;;;;;;5.60;5.10;;;;;;;;;;5047450;28;20475;-83
2021/08/26 02:21:28;;;;;;;6.60;4.70;;;;;;;;;;5045272;28;20185;-83
2021/08/26 02:23:55;;;;;;;6.30;5.13;;;;;;;;;;5044476;28;20963;-82
2021/08/26 02:26:21;;;;;;;4.40;3.75;;;;;;;;;;5048027;28;20205;-82
2021/08/26 02:28:47;;;;;;;4.60;4.20;;;;;;;;;;5045355;28;20186;-83
2021/08/26 02:31:13;;;;;;;4.90;3.50;;;;;;;;;;5047351;28;20182;-83
2021/08/26 02:33:39;;;;;;;5.57;3.88;;;;;;;;;;5042850;28;20201;-82
2021/08/26 02:36:05;;;;;;;4.68;3.70;;;;;;;;;;5056964;28;20569;-82
2021/08/26 02:38:31;;;;;;;4.30;3.90;;;;;;;;;;5048542;28;20174;-83
2021/08/26 02:40:57;;;;;;;3.73;3.43;;;;;;;;;;5046717;28;20444;-82
2021/08/26 02:43:23;;;;;;;5.43;3.43;;;;;;;;;;5045266;28;20448;-83
2021/08/26 02:45:49;;;;;;;4.13;3.80;;;;;;;;;;5046488;28;20463;-83
2021/08/26 02:48:15;;;;;;;5.60;3.40;;;;;;;;;;5041719;28;20437;-83
2021/08/26 02:50:41;;;;;;;4.55;2.90;;;;;;;;;;5048257;28;20420;-82
2021/08/26 02:53:07;;;;;;;3.07;2.77;;;;;;;;;;5032456;28;20190;-83
2021/08/26 02:55:33;;;;;;;4.00;2.83;;;;;;;;;;5062259;28;20455;-82
2021/08/26 02:57:59;;;;;;;4.30;3.17;;;;;;;;;;5055807;28;20451;-83
2021/08/26 03:00:25;;;;;;;4.63;2.53;;;;;;;;;;5042888;28;20437;-83
2021/08/26 03:02:51;;;;;;;3.80;3.40;;;;;;;;;;5044349;28;20185;-83
2021/08/26 03:05:17;;;;;;;2.60;2.40;;;;;;;;;;5047442;28;20216;-83
2021/08/26 03:07:43;;;;;;;3.90;2.90;;;;;;;;;;5046379;28;20249;-83
2021/08/26 03:10:09;;;;;;;3.90;2.90;;;;;;;;;;5046508;28;20178;-83
2021/08/26 03:12:35;;;;;;;3.00;2.70;;;;;;;;;;5043916;28;20458;-83
2021/08/26 03:15:02;;;;;;;3.05;2.50;;;;;;;;;;5041616;28;20182;-82
2021/08/26 03:17:27;;;;;;;4.07;2.15;;;;;;;;;;5056598;28;20735;-83
2021/08/26 03:19:53;;;;;;;5.50;2.40;;;;;;;;;;5056357;28;20220;-83
2021/08/26 03:22:19;;;;;;;2.65;2.35;;;;;;;;;;5051559;28;20448;-83
2021/08/26 03:24:45;;;;;;;2.50;2.30;;;;;;;;;;5046337;28;20195;-83
2021/08/26 03:27:11;;;;;;;2.80;2.00;;;;;;;;;;5040724;28;20474;-83
2021/08/26 03:29:37;;;;;;;2.30;2.03;;;;;;;;;;5047164;28;20170;-83
2021/08/26 03:32:04;;;;;;;3.22;2.08;;;;;;;;;;5046543;28;20432;-83
2021/08/26 03:34:30;;;;;;;3.33;1.77;;;;;;;;;;5044648;28;20275;-83
2021/08/26 03:36:56;;;;;;;2.45;2.20;;;;;;;;;;5045957;28;20191;-83
2021/08/26 03:39:22;;;;;;;2.77;2.57;;;;;;;;;;5040988;28;20190;-83
2021/08/26 03:41:48;;;;;;;2.00;1.70;;;;;;;;;;5044832;28;20516;-82
2021/08/26 03:44:14;;;;;;;3.25;1.80;;;;;;;;;;5047802;28;20182;-82
2021/08/26 03:46:40;;;;;;;4.13;2.00;;;;;;;;;;5043672;28;20210;-83
2021/08/26 03:49:06;;;;;;;3.90;1.90;;;;;;;;;;5044597;28;20444;-83
2021/08/26 03:51:32;;;;;;;2.30;2.10;;;;;;;;;;5043960;28;20531;-83
2021/08/26 03:53:58;;;;;;;2.87;2.07;;;;;;;;;;5043049;28;20512;-83
2021/08/26 03:56:24;;;;;;;2.50;2.08;;;;;;;;;;5046496;28;20444;-83
2021/08/26 03:58:50;;;;;;;2.47;1.80;;;;;;;;;;5049897;28;20185;-83
2021/08/26 04:01:16;;;;;;;11.50;2.50;;;;;;;;;;5056366;28;20210;-82
2021/08/26 04:03:42;;;;;;;2.80;1.77;;;;;;;;;;5055563;28;20427;-83
2021/08/26 04:06:08;;;;;;;2.50;1.70;;;;;;;;;;5039887;28;20472;-82
2021/08/26 04:08:34;;;;;;;1.77;1.67;;;;;;;;;;5046926;28;20412;-83
2021/08/26 04:11:00;;;;;;;2.53;1.47;;;;;;;;;;5045475;28;20189;-83
2021/08/26 04:13:26;;;;;;;2.03;1.80;;;;;;;;;;5045897;28;20428;-82
2021/08/26 04:15:52;;;;;;;3.28;1.92;;;;;;;;;;5045241;28;20892;-83
2021/08/26 04:18:18;;;;;;;3.08;1.90;;;;;;;;;;5038697;28;20252;-82
2021/08/26 04:20:44;;;;;;;2.80;1.93;;;;;;;;;;5062703;28;20546;-82
2021/08/26 04:23:10;;;;;;;2.28;2.05;;;;;;;;;;5046427;28;20444;-83
2021/08/26 04:25:36;;;;;;;2.72;1.80;;;;;;;;;;5043992;28;20248;-83
2021/08/26 04:28:02;;;;;;;2.00;1.70;;;;;;;;;;5042836;28;20189;-83
2021/08/26 04:30:28;;;;;;;3.75;2.17;;;;;;;;;;5057360;28;20428;-83
2021/08/26 04:32:54;;;;;;;4.30;2.05;;;;;;;;;;5044652;28;20176;-83
2021/08/26 04:35:20;;;;;;;2.83;1.92;;;;;;;;;;5050134;28;20194;-83
2021/08/26 04:37:46;;;;;;;1.93;1.70;;;;;;;;;;5049841;28;20212;-83
2021/08/26 04:40:13;;;;;;;2.10;1.92;;;;;;;;;;5048092;28;20895;-83
2021/08/26 04:42:39;;;;;;;2.42;2.00;;;;;;;;;;5047515;28;20189;-83
2021/08/26 04:45:05;;;;;;;2.33;1.77;;;;;;;;;;5045202;28;20223;-82
2021/08/26 04:47:31;;;;;;;1.92;1.80;;;;;;;;;;5064294;28;20407;-83
2021/08/26 04:49:57;;;;;;;2.22;1.70;;;;;;;;;;5048919;28;20213;-83
2021/08/26 04:52:23;;;;;;;2.20;2.00;;;;;;;;;;5050209;28;20213;-83
2021/08/26 04:54:49;;;;;;;1.88;1.70;;;;;;;;;;5059987;28;20427;-83
2021/08/26 04:57:15;;;;;;;1.63;1.50;;;;;;;;;;5042596;28;20211;-83
2021/08/26 04:59:41;;;;;;;2.00;1.80;;;;;;;;;;5048919;28;20421;-83
2021/08/26 05:02:07;;;;;;;1.42;1.30;;;;;;;;;;5049067;28;20450;-83
2021/08/26 05:04:33;;;;;;;1.83;1.73;;;;;;;;;;5048830;28;20181;-83
2021/08/26 05:06:59;;;;;;;1.95;1.60;;;;;;;;;;5046996;28;20463;-83
2021/08/26 05:09:25;;;;;;;4.23;1.87;;;;;;;;;;5044387;28;20182;-83
2021/08/26 05:11:55;;;;;;;1.90;1.58;;;;;;;;;;5047937;28;20423;-83
2021/08/26 05:14:20;;;;;;;2.63;1.90;;;;;;;;;;5047584;28;20189;-83
2021/08/26 05:16:46;;;;;;;3.60;1.73;;;;;;;;;;5055533;28;20184;-83
2021/08/26 05:19:12;;;;;;;2.13;1.70;;;;;;;;;;5055993;28;20479;-83
2021/08/26 05:21:38;;;;;;;2.37;1.57;;;;;;;;;;5046003;28;20440;-82
2021/08/26 05:24:04;;;;;;;2.47;1.58;;;;;;;;;;5060096;28;20532;-83
2021/08/26 05:26:30;;;;;;;2.67;1.80;;;;;;;;;;5064611;28;20197;-83
2021/08/26 05:28:56;;;;;;;1.90;1.80;;;;;;;;;;5048885;28;20218;-82
2021/08/26 05:31:22;;;;;;;3.00;1.85;;;;;;;;;;5049266;28;20301;-82
2021/08/26 05:33:48;;;;;;;2.40;2.20;;;;;;;;;;5047902;28;20250;-83
2021/08/26 05:36:14;;;;;;;2.50;1.60;;;;;;;;;;5043794;28;20190;-83
2021/08/26 05:38:40;;;;;;;3.40;1.90;;;;;;;;;;5050337;28;20420;-83
2021/08/26 05:41:06;;;;;;;2.60;2.17;;;;;;;;;;5048403;28;20449;-83
2021/08/26 05:43:32;;;;;;;1.70;1.50;;;;;;;;;;5046842;28;20444;-83
2021/08/26 05:45:58;;;;;;;1.43;1.33;;;;;;;;;;5046272;28;20208;-83
2021/08/26 05:48:24;;;;;;;2.20;1.60;;;;;;;;;;5043232;28;20437;-82
2021/08/26 05:50:50;;;;;;;3.05;1.92;;;;;;;;;;5046365;28;20421;-82
2021/08/26 05:53:16;;;;;;;2.60;2.27;;;;;;;;;;5048853;28;20169;-83
2021/08/26 05:55:42;;;;;;;1.63;1.53;;;;;;;;;;5048018;28;20439;-83
2021/08/26 05:58:08;;;;;;;3.00;2.23;;;;;;;;;;5046123;28;20442;-83
2021/08/26 06:00:34;;;;;;;2.28;1.80;;;;;;;;;;5059262;28;20449;-83
2021/08/26 06:03:00;;;;;;;2.40;2.20;;;;;;;;;;5043182;28;20629;-83
2021/08/26 06:05:26;;;;;;;6.40;2.20;;;;;;;;;;5048817;28;20217;-83
2021/08/26 06:07:52;;;;;;;4.80;2.03;;;;;;;;;;5046692;28;20436;-83
2021/08/26 06:10:18;;;;;;;3.13;2.43;;;;;;;;;;5048101;28;20428;-83
2021/08/26 06:12:44;;;;;;;2.30;2.10;;;;;;;;;;5041532;28;21037;-82
2021/08/26 06:15:11;;;;;;;4.72;2.20;;;;;;;;;;5059425;28;20443;-83
2021/08/26 06:17:37;;;;;;;3.67;2.38;;;;;;;;;;5049418;28;20252;-83
2021/08/26 06:20:04;;;;;;;1.75;1.65;;;;;;;;;;5057913;28;20228;-83
2021/08/26 06:22:31;;;;;;;3.00;2.00;;;;;;;;;;5052446;28;20192;-83
2021/08/26 06:24:56;;;;;;;3.28;2.15;;;;;;;;;;5048344;28;20213;-83
2021/08/26 06:27:22;;;;;;;4.38;2.10;;;;;;;;;;5044430;28;20200;-83
2021/08/26 06:29:48;;;;;;;2.33;2.03;;;;;;;;;;5046835;28;20178;-82
2021/08/26 06:32:15;;;;;;;1.97;1.83;;;;;;;;;;5046946;28;20177;-83
2021/08/26 06:34:41;;;;;;;2.13;1.92;;;;;;;;;;5047054;28;20436;-83
2021/08/26 06:37:07;;;;;;;3.50;2.30;;;;;;;;;;5047919;28;20190;-83
2021/08/26 06:39:32;;;;;;;2.20;1.95;;;;;;;;;;5045069;28;20417;-83
2021/08/26 06:41:58;;;;;;;3.00;1.70;;;;;;;;;;5043458;28;20177;-83
2021/08/26 06:44:25;;;;;;;2.87;1.90;;;;;;;;;;5056716;28;20416;-83
2021/08/26 06:46:51;;;;;;;5.10;1.90;;;;;;;;;;5049114;28;20846;-83
2021/08/26 06:49:22;;;;;;;3.30;2.50;;;;;;;;;;5045271;28;20197;-83
2021/08/26 06:51:48;;;;;;;5.43;2.00;;;;;;;;;;5047164;28;20474;-82
2021/08/26 06:54:14;;;;;;;3.33;1.90;;;;;;;;;;5041535;28;20186;-83
2021/08/26 06:56:40;;;;;;;2.87;2.27;;;;;;;;;;5046948;28;20500;-83
2021/08/26 06:59:06;;;;;;;2.40;1.85;;;;;;;;;;5044934;28;20448;-83
2021/08/26 07:01:32;;;;;;;5.20;2.43;;;;;;;;;;5046786;28;20193;-82
2021/08/26 07:04:03;;;;;;;2.90;2.33;;;;;;;;;;5046037;28;20443;-83
2021/08/26 07:06:29;;;;;;;2.42;2.20;;;;;;;;;;5043350;28;20214;-83
2021/08/26 07:08:55;;;;;;;3.30;2.08;;;;;;;;;;5043393;28;20236;-83
2021/08/26 07:11:22;;;;;;;3.45;2.28;;;;;;;;;;5055084;28;20177;-82
2021/08/26 07:13:48;;;;;;;4.85;3.05;;;;;;;;;;5047798;28;20185;-83
2021/08/26 07:16:14;;;;;;;3.72;3.00;;;;;;;;;;5047312;28;20192;-83
2021/08/26 07:18:40;;;;;;;4.53;2.97;;;;;;;;;;5041794;28;20218;-83
2021/08/26 07:21:06;;;;;;;5.88;2.70;;;;;;;;;;5040167;28;20884;-83
2021/08/26 07:23:32;;;;;;;3.40;2.37;;;;;;;;;;5048513;28;20179;-83
2021/08/26 07:25:58;;;;;;;5.22;3.92;;;;;;;;;;5045963;28;20467;-83
2021/08/26 07:28:24;;;;;;;6.35;3.60;;;;;;;;;;5051511;28;20182;-83
2021/08/26 07:30:50;;;;;;;6.03;3.17;;;;;;;;;;5053101;28;20189;-83
2021/08/26 07:33:17;;;;;;;5.03;3.20;;;;;;;;;;5056005;28;20182;-83
2021/08/26 07:35:43;;;;;;;5.38;3.53;;;;;;;;;;5047381;28;20423;-83
2021/08/26 07:38:09;;;;;;;6.70;3.77;;;;;;;;;;5053253;28;20177;-83
2021/08/26 07:40:35;;;;;;;5.40;4.10;;;;;;;;;;5049968;28;20789;-83
2021/08/26 07:43:01;;;;;;;4.35;3.22;;;;;;;;;;5039390;28;20468;-83
2021/08/26 07:45:27;;;;;;;7.90;4.43;;;;;;;;;;5042300;28;20207;-83
2021/08/26 07:47:53;;;;;;;4.15;3.60;;;;;;;;;;5043659;28;20176;-83
2021/08/26 07:50:21;;;;;;;5.75;4.28;;;;;;;;;;5059143;28;20193;-83
2021/08/26 07:52:47;;;;;;;6.72;4.07;;;;;;;;;;5050938;28;20177;-83
2021/08/26 07:55:13;;;;;;;6.78;5.13;;;;;;;;;;5052209;28;20181;-83
2021/08/26 07:57:39;;;;;;;4.97;3.40;;;;;;;;;;5057002;28;20181;-82
2021/08/26 08:00:05;;;;;;;6.82;4.07;;;;;;;;;;5039876;28;20199;-83
2021/08/26 08:02:31;;;;;;;6.40;3.72;;;;;;;;;;5061051;28;20177;-83
2021/08/26 08:04:57;;;;;;;6.00;3.92;;;;;;;;;;5047208;28;20185;-83
2021/08/26 08:07:26;;;;;;;5.60;3.53;;;;;;;;;;5045993;28;20264;-83
2021/08/26 08:09:52;;;;;;;4.55;3.17;;;;;;;;;;5045341;28;20440;-83
2021/08/26 08:12:18;;;;;;;5.18;4.20;;;;;;;;;;5060092;28;20201;-83
2021/08/26 08:14:47;;;;;;;7.95;3.95;;;;;;;;;;5048297;28;20269;-82
2021/08/26 08:17:13;;;;;;;6.38;3.60;;;;;;;;;;5077261;28;20172;-83
2021/08/26 08:19:39;;;;;;;8.10;3.40;;;;;;;;;;5060309;28;20235;-83
2021/08/26 08:22:05;;;;;;;4.55;3.10;;;;;;;;;;5057760;28;20447;-83
2021/08/26 08:24:31;;;;;;;5.85;3.15;;;;;;;;;;5046611;28;20183;-83
2021/08/26 08:26:57;;;;;;;5.50;3.13;;;;;;;;;;5045134;28;20236;-82
2021/08/26 08:29:24;;;;;;;3.33;2.50;;;;;;;;;;5048275;28;20515;-83
2021/08/26 08:31:53;;;;;;;3.65;3.08;;;;;;;;;;5049454;28;20482;-83
2021/08/26 08:34:19;;;;;;;3.42;3.03;;;;;;;;;;5047966;28;20193;-83
2021/08/26 08:36:45;;;;;;;3.80;2.87;;;;;;;;;;5048822;28;20181;-83
2021/08/26 08:39:11;;;;;;;3.40;2.70;;;;;;;;;;5042913;28;20451;-83
2021/08/26 08:41:37;;;;;;;5.13;2.80;;;;;;;;;;5050575;28;20422;-82
2021/08/26 08:44:03;;;;;;;5.03;2.30;;;;;;;;;;5048911;28;20451;-84
2021/08/26 08:46:30;;;;;;;4.57;3.17;;;;;;;;;;5049219;28;20206;-84
2021/08/26 08:48:56;;;;;;;2.88;2.67;;;;;;;;;;5048860;28;20197;-83
2021/08/26 08:51:23;;;;;;;4.43;3.08;;;;;;;;;;5057962;28;20184;-83
2021/08/26 08:53:49;;;;;;;4.50;3.42;;;;;;;;;;5048798;28;20170;-83
2021/08/26 08:56:17;;;;;;;2.85;2.47;;;;;;;;;;5046465;28;20192;-83
2021/08/26 08:58:44;;;;;;;3.80;2.72;;;;;;;;;;5048714;28;20193;-83
2021/08/26 09:01:13;;;;;;;4.32;2.90;;;;;;;;;;5048818;28;20262;-83
2021/08/26 09:03:39;;;;;;;4.20;2.90;;;;;;;;;;5048718;28;20270;-84
2021/08/26 09:06:09;;;;;;;5.55;3.25;;;;;;;;;;5042934;28;20211;-84
2021/08/26 09:08:35;;;;;;;4.30;3.83;;;;;;;;;;5064751;28;20256;-83
2021/08/26 09:11:12;;;;;;;4.88;3.70;;;;;;;;;;5044285;28;20260;-83
2021/08/26 09:13:38;;;;;;;5.82;3.00;;;;;;;;;;5046602;28;20183;-83
2021/08/26 09:16:04;;;;;;;5.78;3.47;;;;;;;;;;5047288;28;20239;-83
2021/08/26 09:18:31;;;;;;;3.65;3.22;;;;;;;;;;5045118;28;20216;-83
2021/08/26 09:20:58;;;;;;;5.18;3.35;;;;;;;;;;5046924;28;20178;-83
2021/08/26 09:23:26;;;;;;;4.15;3.72;;;;;;;;;;5060613;28;20180;-83
2021/08/26 09:25:52;;;;;;;3.97;3.03;;;;;;;;;;5044806;28;20236;-83
2021/08/26 09:28:26;;;;;;;4.18;3.30;;;;;;;;;;5053319;28;20186;-83
2021/08/26 09:31:08;;;;;;;3.92;3.00;;;;;;;;;;5058556;28;20179;-83
2021/08/26 09:33:50;;;;;;;3.20;2.90;;;;;;;;;;5046337;28;20236;-83
2021/08/26 09:36:20;;;;;;;3.13;2.20;;;;;;;;;;5042741;28;20543;-83
2021/08/26 09:38:53;;;;;;;3.53;2.58;;;;;;;;;;5063635;28;20224;-83
2021/08/26 09:41:55;;;;;;;2.10;1.90;;;;;;;;;;5061325;28;20255;-83
2021/08/26 09:44:28;;;;;;;4.07;1.67;;;;;;;;;;5030452;28;20183;-83
2021/08/26 09:46:55;;;;;;;3.40;1.70;;;;;;;;;;5029980;28;20221;-83
2021/08/26 09:49:23;;;;;;;3.20;1.77;;;;;;;;;;5034891;28;20193;-83
2021/08/26 09:52:05;;;;;;;1.50;1.40;;;;;;;;;;5040948;28;20195;-83
2021/08/26 09:54:33;;;;;;;2.10;1.80;;;;;;;;;;5028354;28;20202;-83
2021/08/26 09:56:59;;;;;;;3.25;1.73;;;;;;;;;;5027321;28;20183;-83
2021/08/26 09:59:46;;;;;;;2.17;1.98;;;;;;;;;;5045921;28;20244;-83
2021/08/26 10:02:12;;;;;;;2.78;1.98;;;;;;;;;;5043105;28;20214;-83
2021/08/26 10:04:38;;;;;;;2.63;2.40;;;;;;;;;;5041225;28;20683;-83
2021/08/26 10:07:05;;;;;;;2.40;2.05;;;;;;;;;;5043668;28;20476;-83
2021/08/26 10:09:32;;;;;;;2.58;2.05;;;;;;;;;;5026266;28;20183;-83
2021/08/26 10:11:58;;;;;;;2.50;1.88;;;;;;;;;;5027214;28;20187;-83
2021/08/26 10:14:24;;;;;;;1.75;1.52;;;;;;;;;;5046498;28;20250;-83
2021/08/26 10:16:51;;;;;;;3.88;2.70;;;;;;;;;;5038703;28;20187;-83
2021/08/26 10:19:17;;;;;;;3.78;1.90;;;;;;;;;;5047782;28;20229;-83
2021/08/26 10:21:44;;;;;;;1.70;1.60;;;;;;;;;;5046146;28;20210;-83
2021/08/26 10:24:12;;;;;;;2.40;1.95;;;;;;;;;;5058186;28;20229;-83
2021/08/26 10:26:38;;;;;;;3.63;1.80;;;;;;;;;;5048829;28;20203;-84
2021/08/26 10:29:06;;;;;;;1.95;1.80;;;;;;;;;;5047364;28;20284;-83
2021/08/26 10:31:36;;;;;;;4.43;1.90;;;;;;;;;;5045381;28;20184;-84
2021/08/26 10:34:20;;;;;;;2.42;1.80;;;;;;;;;;5046404;28;20728;-83
2021/08/26 10:36:57;;;;;;;2.10;1.63;;;;;;;;;;5046492;28;20237;-83
2021/08/26 10:39:28;;;;;;;1.85;1.73;;;;;;;;;;5044617;28;20490;-83
2021/08/26 10:41:55;;;;;;;2.40;2.20;;;;;;;;;;5044277;28;20223;-84
2021/08/26 10:44:21;;;;;;;4.47;1.40;;;;;;;;;;5047089;28;20177;-84
2021/08/26 10:46:55;;;;;;;2.65;1.55;;;;;;;;;;5054111;28;20469;-83
2021/08/26 10:49:21;;;;;;;1.83;1.30;;;;;;;;;;5051639;28;20188;-84
2021/08/26 10:51:49;;;;;;;1.50;1.40;;;;;;;;;;5042397;28;20462;-83
2021/08/26 10:54:26;;;;;;;1.70;1.50;;;;;;;;;;5042249;28;20460;-83
2021/08/26 10:56:52;;;;;;;1.90;1.10;;;;;;;;;;5044836;28;20576;-84
2021/08/26 10:59:29;;;;;;;1.20;1.00;;;;;;;;;;5055092;28;20926;-82
2021/08/26 11:01:55;;;;;;;2.00;1.47;;;;;;;;;;5056210;28;20426;-83
2021/08/26 11:04:27;;;;;;;1.20;1.10;;;;;;;;;;5053490;28;20438;-84
2021/08/26 11:06:53;;;;;;;1.07;0.90;;;;;;;;;;5056969;28;20467;-84
2021/08/26 11:09:19;;;;;;;1.00;0.83;;;;;;;;;;5042277;28;20962;-83
2021/08/26 11:11:47;;;;;;;1.30;1.10;;;;;;;;;;5045730;28;20467;-83
2021/08/26 11:14:13;;;;;;;3.10;0.90;;;;;;;;;;5046830;28;20405;-84
2021/08/26 11:16:40;;;;;;;0.87;0.83;;;;;;;;;;5041594;28;20415;-83
2021/08/26 11:19:07;;;;;;;1.17;1.07;;;;;;;;;;5046149;28;20479;-84
2021/08/26 11:24:15;;;;;;;1.40;1.30;;;;;;;;;;5058171;28;20402;-82
2021/08/26 11:26:58;;;;;;;1.20;1.10;;;;;;;;;;5071592;28;20434;-83
2021/08/26 11:29:24;;;;;;;1.50;1.30;;;;;;;;;;5054518;28;20441;-83
2021/08/26 11:31:53;;;;;;;1.43;1.20;;;;;;;;;;5053947;28;20443;-83
2021/08/26 11:34:19;;;;;;;2.50;1.40;;;;;;;;;;5053750;28;20433;-83
2021/08/26 11:37:05;;;;;;;2.93;1.97;;;;;;;;;;5045518;28;20406;-82
2021/08/26 11:39:33;;;;;;;2.90;1.60;;;;;;;;;;5044610;28;20433;-81
2021/08/26 11:42:00;;;;;;;1.70;1.50;;;;;;;;;;5042731;28;20887;-82
2021/08/26 11:44:27;;;;;;;3.20;1.70;;;;;;;;;;5045824;28;20401;-83
2021/08/26 11:46:53;;;;;;;2.27;1.80;;;;;;;;;;5039535;28;20496;-83
2021/08/26 11:49:19;;;;;;;6.70;2.13;;;;;;;;;;5045324;28;20411;-82
2021/08/26 11:51:45;;;;;;;2.77;1.60;;;;;;;;;;5043985;28;20473;-84
2021/08/26 11:54:16;;;;;;;4.13;1.53;;;;;;;;;;5040668;28;20412;-83
2021/08/26 11:56:46;;;;;;;2.77;1.33;;;;;;;;;;5042609;28;20697;-83
2021/08/26 11:59:22;;;;;;;3.43;2.03;;;;;;;;;;5056954;28;20546;-83
2021/08/26 12:01:48;;;;;;;3.60;1.93;;;;;;;;;;5042239;28;20429;-83
2021/08/26 12:04:14;;;;;;;2.43;2.03;;;;;;;;;;5049407;28;20436;-82
2021/08/26 12:06:50;;;;;;;4.57;1.80;;;;;;;;;;5057494;28;20493;-83
2021/08/26 12:09:16;;;;;;;4.77;2.10;;;;;;;;;;5041246;28;20439;-83
2021/08/26 12:11:42;;;;;;;2.27;1.90;;;;;;;;;;5045898;28;20833;-83
2021/08/26 12:14:09;;;;;;;2.50;2.07;;;;;;;;;;5051342;28;20465;-83
2021/08/26 12:16:36;;;;;;;3.23;1.80;;;;;;;;;;5056393;28;20432;-82
2021/08/26 12:19:04;;;;;;;3.83;2.20;;;;;;;;;;5053106;28;20470;-83
2021/08/26 12:21:30;;;;;;;2.03;1.80;;;;;;;;;;5042704;28;20440;-83
2021/08/26 12:23:56;;;;;;;3.70;2.13;;;;;;;;;;5042957;28;20422;-84
2021/08/26 12:26:22;;;;;;;4.50;2.53;;;;;;;;;;5054831;28;20462;-83
2021/08/26 12:29:01;;;;;;;3.90;2.23;;;;;;;;;;5046304;28;20436;-83
2021/08/26 12:31:29;;;;;;;3.10;2.80;;;;;;;;;;5044732;28;20482;-83
2021/08/26 12:34:14;;;;;;;4.27;2.60;;;;;;;;;;5045759;28;20457;-83
2021/08/26 12:36:41;;;;;;;3.70;2.73;;;;;;;;;;5044636;28;20429;-84
2021/08/26 12:39:19;;;;;;;3.90;3.10;;;;;;;;;;5041782;28;20411;-83
2021/08/26 12:41:45;;;;;;;5.67;4.10;;;;;;;;;;5060761;28;20460;-83
2021/08/26 12:44:27;;;;;;;6.03;3.70;;;;;;;;;;5052129;28;20435;-83
2021/08/26 12:46:54;;;;;;;5.60;3.70;;;;;;;;;;5047076;28;20478;-83
2021/08/26 12:49:20;;;;;;;5.00;3.60;;;;;;;;;;5044178;28;20426;-83
2021/08/26 12:51:53;;;;;;;5.97;5.00;;;;;;;;;;5043503;28;20418;-83
2021/08/26 12:54:19;;;;;;;6.40;4.57;;;;;;;;;;5041583;28;20414;-83
2021/08/26 12:56:45;;;;;;;4.47;3.60;;;;;;;;;;5050554;28;20398;-82
2021/08/26 12:59:12;;;;;;;5.50;4.50;;;;;;;;;;5055450;28;20399;-83
2021/08/26 13:01:48;;;;;;;6.27;3.83;;;;;;;;;;5048129;28;20455;-83
2021/08/26 13:04:24;;;;;;;6.00;3.50;;;;;;;;;;5048768;28;20776;-83
2021/08/26 13:06:51;;;;;;;6.10;4.17;;;;;;;;;;5048477;28;20455;-83
2021/08/26 13:09:26;;;;;;;5.70;3.50;;;;;;;;;;5044785;28;20793;-83
2021/08/26 13:11:58;;;;;;;5.22;3.42;;;;;;;;;;5048144;28;20176;-81
2021/08/26 13:14:28;;;;;;;6.15;3.28;;;;;;;;;;5061599;28;20183;-83
2021/08/26 13:16:54;;;;;;;7.50;3.63;;;;;;;;;;5050530;28;20189;-83
2021/08/26 13:19:20;;;;;;;6.73;3.13;;;;;;;;;;5053753;28;20249;-83
2021/08/26 13:21:46;;;;;;;3.60;2.57;;;;;;;;;;5054940;28;20410;-83
2021/08/26 13:24:12;;;;;;;4.23;2.87;;;;;;;;;;5057984;28;20441;-84
2021/08/26 13:26:38;;;;;;;5.03;2.40;;;;;;;;;;5048966;28;20456;-83
2021/08/26 13:29:04;;;;;;;3.20;2.17;;;;;;;;;;5048595;28;20427;-84
2021/08/26 13:31:30;;;;;;;4.97;2.40;;;;;;;;;;5047890;28;20407;-83
2021/08/26 13:33:56;;;;;;;4.20;2.53;;;;;;;;;;5047935;28;20469;-82
2021/08/26 13:36:22;;;;;;;3.23;2.13;;;;;;;;;;5043545;28;20414;-83
2021/08/26 13:38:48;;;;;;;2.50;1.87;;;;;;;;;;5047749;28;20429;-84
2021/08/26 13:41:14;;;;;;;2.53;2.00;;;;;;;;;;5048373;28;20418;-83
2021/08/26 13:43:40;;;;;;;3.47;1.97;;;;;;;;;;5054579;28;20531;-84
2021/08/26 13:46:06;;;;;;;2.30;1.63;;;;;;;;;;5056305;28;20495;-82
2021/08/26 13:48:32;;;;;;;3.83;3.50;;;;;;;;;;5045298;28;20999;-84
2021/08/26 13:50:58;;;;;;;2.43;1.50;;;;;;;;;;5047203;28;20492;-83
2021/08/26 13:53:24;;;;;;;4.50;1.63;;;;;;;;;;5047943;28;20416;-83
2021/08/26 13:55:50;;;;;;;3.53;1.80;;;;;;;;;;5046682;28;20469;-84
2021/08/26 13:58:16;;;;;;;2.73;2.10;;;;;;;;;;5047732;28;20468;-85
2021/08/26 14:00:44;;;;;;;2.10;1.80;;;;;;;;;;5047306;28;20459;-84
2021/08/26 14:03:10;;;;;;;4.70;2.30;;;;;;;;;;5042906;28;20446;-83
2021/08/26 14:05:36;;;;;;;2.20;1.70;;;;;;;;;;5057983;28;20450;-83
2021/08/26 14:08:02;;;;;;;4.60;1.77;;;;;;;;;;5049700;28;20436;-83
2021/08/26 14:10:28;;;;;;;2.33;2.13;;;;;;;;;;5047236;28;20459;-85
2021/08/26 14:12:55;;;;;;;3.53;1.93;;;;;;;;;;5046260;28;20492;-84
2021/08/26 14:15:21;;;;;;;4.07;2.70;;;;;;;;;;5040754;28;20447;-83
2021/08/26 14:17:47;;;;;;;5.60;2.13;;;;;;;;;;5059837;28;20406;-84
2021/08/26 14:20:13;;;;;;;2.93;2.03;;;;;;;;;;5058819;28;20470;-84
2021/08/26 14:22:40;;;;;;;2.73;2.07;;;;;;;;;;5043557;28;20457;-84
2021/08/26 14:25:06;;;;;;;3.00;2.07;;;;;;;;;;5044535;28;20417;-84
2021/08/26 14:27:33;;;;;;;2.83;2.13;;;;;;;;;;5057988;28;20414;-83
2021/08/26 14:29:59;;;;;;;4.77;2.57;;;;;;;;;;5045043;28;20420;-83
2021/08/26 14:32:26;;;;;;;3.50;2.10;;;;;;;;;;5043261;28;20419;-84
2021/08/26 14:34:52;;;;;;;4.00;2.60;;;;;;;;;;5055343;28;20428;-82
2021/08/26 14:37:19;;;;;;;4.60;2.43;;;;;;;;;;5040394;28;20433;-81
2021/08/26 14:39:45;;;;;;;3.90;2.70;;;;;;;;;;5046032;28;20524;-82
2021/08/26 14:42:11;;;;;;;3.93;2.50;;;;;;;;;;5057012;28;20480;-83
2021/08/26 14:44:39;;;;;;;3.17;2.87;;;;;;;;;;5049242;28;20904;-83
2021/08/26 14:47:05;;;;;;;3.43;2.90;;;;;;;;;;5047183;28;20473;-83
2021/08/26 14:49:31;;;;;;;4.97;2.70;;;;;;;;;;5045669;28;20416;-82
2021/08/26 14:51:57;;;;;;;4.87;3.70;;;;;;;;;;5047648;28;20448;-83